createdAt,value
2018-07-06T00:00:50.626Z,1007.83
2018-07-06T00:01:50.523Z,1007.81
2018-07-06T00:02:50.428Z,1007.81
2018-07-06T00:03:50.336Z,1007.85
2018-07-06T00:04:50.238Z,1007.87
2018-07-06T00:05:50.148Z,1007.88
2018-07-06T00:06:50.052Z,1007.89
2018-07-06T00:07:49.950Z,1007.86
2018-07-06T00:08:49.860Z,1007.85
2018-07-06T00:09:49.768Z,1007.91
2018-07-06T00:10:49.685Z,1007.91
2018-07-06T00:11:49.579Z,1007.89
2018-07-06T00:12:49.482Z,1007.85
2018-07-06T00:13:49.392Z,1007.87
2018-07-06T00:14:49.293Z,1007.84
2018-07-06T00:15:49.202Z,1007.86
2018-07-06T00:16:49.112Z,1007.83
2018-07-06T00:17:49.012Z,1007.86
2018-07-06T00:18:48.920Z,1007.87
2018-07-06T00:19:48.824Z,1007.90
2018-07-06T00:20:48.725Z,1007.90
2018-07-06T00:21:48.882Z,1007.92
2018-07-06T00:22:48.527Z,1007.89
2018-07-06T00:23:48.436Z,1007.84
2018-07-06T00:24:48.342Z,1007.83
2018-07-06T00:25:48.252Z,1007.87
2018-07-06T00:26:48.153Z,1007.86
2018-07-06T00:27:48.062Z,1007.86
2018-07-06T00:28:47.969Z,1007.91
2018-07-06T00:29:47.866Z,1007.87
2018-07-06T00:30:47.779Z,1007.86
2018-07-06T00:31:47.677Z,1007.85
2018-07-06T00:32:47.583Z,1007.90
2018-07-06T00:33:47.491Z,1007.88
2018-07-06T00:34:47.384Z,1007.85
2018-07-06T00:35:47.294Z,1007.93
2018-07-06T00:36:47.215Z,1007.87
2018-07-06T00:37:47.107Z,1007.88
2018-07-06T00:38:47.011Z,1007.89
2018-07-06T00:39:46.933Z,1007.88
2018-07-06T00:40:46.814Z,1007.89
2018-07-06T00:41:46.727Z,1007.89
2018-07-06T00:42:46.636Z,1007.90
2018-07-06T00:43:46.533Z,1007.89
2018-07-06T00:44:46.440Z,1007.89
2018-07-06T00:45:46.349Z,1007.89
2018-07-06T00:46:46.250Z,1007.91
2018-07-06T00:47:46.160Z,1007.95
2018-07-06T00:48:46.112Z,1007.99
2018-07-06T00:49:45.963Z,1007.99
2018-07-06T00:50:45.869Z,1008.02
2018-07-06T00:51:45.766Z,1008.03
2018-07-06T00:52:45.679Z,1008.01
2018-07-06T00:53:45.589Z,1007.99
2018-07-06T00:54:45.517Z,1008.02
2018-07-06T00:55:45.389Z,1008.02
2018-07-06T00:56:45.302Z,1008.03
2018-07-06T00:57:45.199Z,1008.02
2018-07-06T00:58:45.110Z,1008.04
2018-07-06T00:59:45.024Z,1008.06
2018-07-06T01:00:44.911Z,1008.07
2018-07-06T01:01:44.936Z,1008.07
2018-07-06T01:02:44.734Z,1008.06
2018-07-06T01:03:44.629Z,1008.09
2018-07-06T01:04:44.540Z,1008.05
2018-07-06T01:05:44.451Z,1008.06
2018-07-06T01:06:44.347Z,1008.07
2018-07-06T01:07:44.252Z,1008.09
2018-07-06T01:08:44.155Z,1008.10
2018-07-06T01:09:44.062Z,1008.10
2018-07-06T01:10:43.966Z,1008.10
2018-07-06T01:11:43.864Z,1008.13
2018-07-06T01:12:43.773Z,1008.16
2018-07-06T01:13:43.679Z,1008.17
2018-07-06T01:14:43.580Z,1008.19
2018-07-06T01:15:43.490Z,1008.14
2018-07-06T01:16:43.398Z,1008.20
2018-07-06T01:17:43.293Z,1008.25
2018-07-06T01:18:43.207Z,1008.23
2018-07-06T01:19:43.115Z,1008.22
2018-07-06T01:20:43.012Z,1008.22
2018-07-06T01:21:42.920Z,1008.22
2018-07-06T01:22:42.813Z,1008.21
2018-07-06T01:23:42.722Z,1008.21
2018-07-06T01:24:42.639Z,1008.21
2018-07-06T01:25:42.532Z,1008.24
2018-07-06T01:26:42.436Z,1008.19
2018-07-06T01:27:42.334Z,1008.23
2018-07-06T01:28:42.245Z,1008.17
2018-07-06T01:29:42.153Z,1008.17
2018-07-06T01:30:42.054Z,1008.18
2018-07-06T01:31:41.965Z,1008.16
2018-07-06T01:32:41.866Z,1008.20
2018-07-06T01:33:41.763Z,1008.17
2018-07-06T01:34:41.677Z,1008.19
2018-07-06T01:35:41.574Z,1008.23
2018-07-06T01:36:41.485Z,1008.24
2018-07-06T01:37:41.395Z,1008.26
2018-07-06T01:38:41.288Z,1008.30
2018-07-06T01:39:41.196Z,1008.32
2018-07-06T01:40:41.105Z,1008.32
2018-07-06T01:41:41.002Z,1008.33
2018-07-06T01:42:40.914Z,1008.34
2018-07-06T01:43:40.811Z,1008.34
2018-07-06T01:44:40.720Z,1008.33
2018-07-06T01:45:40.629Z,1008.40
2018-07-06T01:46:40.520Z,1008.33
2018-07-06T01:47:40.431Z,1008.39
2018-07-06T01:48:40.334Z,1008.33
2018-07-06T01:49:40.242Z,1008.39
2018-07-06T01:50:40.167Z,1008.41
2018-07-06T01:51:40.045Z,1008.42
2018-07-06T01:52:39.951Z,1008.39
2018-07-06T01:53:39.849Z,1008.41
2018-07-06T01:54:39.761Z,1008.40
2018-07-06T01:55:39.670Z,1008.38
2018-07-06T01:56:39.816Z,1008.36
2018-07-06T01:57:39.473Z,1008.37
2018-07-06T01:58:39.375Z,1008.40
2018-07-06T01:59:39.282Z,1008.37
2018-07-06T02:00:39.193Z,1008.39
2018-07-06T02:01:39.090Z,1008.37
2018-07-06T02:02:38.995Z,1008.38
2018-07-06T02:03:38.893Z,1008.34
2018-07-06T02:04:38.804Z,1008.37
2018-07-06T02:05:38.713Z,1008.33
2018-07-06T02:06:38.854Z,1008.38
2018-07-06T02:07:38.515Z,1008.37
2018-07-06T02:08:38.413Z,1008.40
2018-07-06T02:09:38.322Z,1008.42
2018-07-06T02:10:38.236Z,1008.39
2018-07-06T02:11:38.133Z,1008.40
2018-07-06T02:12:38.037Z,1008.40
2018-07-06T02:13:37.934Z,1008.38
2018-07-06T02:14:37.847Z,1008.40
2018-07-06T02:15:37.755Z,1008.38
2018-07-06T02:16:37.651Z,1008.42
2018-07-06T02:17:37.561Z,1008.35
2018-07-06T02:18:37.453Z,1008.39
2018-07-06T02:19:37.361Z,1008.35
2018-07-06T02:20:37.264Z,1008.37
2018-07-06T02:21:37.172Z,1008.38
2018-07-06T02:22:37.067Z,1008.37
2018-07-06T02:23:36.979Z,1008.35
2018-07-06T02:24:36.883Z,1008.34
2018-07-06T02:25:36.779Z,1008.33
2018-07-06T02:26:36.692Z,1008.37
2018-07-06T02:27:36.589Z,1008.31
2018-07-06T02:28:36.498Z,1008.37
2018-07-06T02:29:36.391Z,1008.40
2018-07-06T02:30:36.304Z,1008.34
2018-07-06T02:31:36.202Z,1008.38
2018-07-06T02:32:36.112Z,1008.39
2018-07-06T02:33:36.025Z,1008.35
2018-07-06T02:34:35.913Z,1008.40
2018-07-06T02:35:35.826Z,1008.40
2018-07-06T02:36:35.722Z,1008.39
2018-07-06T02:37:35.631Z,1008.36
2018-07-06T02:38:35.526Z,1008.31
2018-07-06T02:39:35.434Z,1008.29
2018-07-06T02:40:35.332Z,1008.34
2018-07-06T02:41:35.241Z,1008.32
2018-07-06T02:42:35.142Z,1008.35
2018-07-06T02:43:35.051Z,1008.35
2018-07-06T02:44:34.954Z,1008.42
2018-07-06T02:45:34.850Z,1008.40
2018-07-06T02:46:34.768Z,1008.42
2018-07-06T02:47:34.667Z,1008.44
2018-07-06T02:48:34.572Z,1008.43
2018-07-06T02:49:34.468Z,1008.45
2018-07-06T02:50:34.374Z,1008.47
2018-07-06T02:51:34.269Z,1008.46
2018-07-06T02:52:34.181Z,1008.49
2018-07-06T02:53:34.079Z,1008.44
2018-07-06T02:54:33.984Z,1008.48
2018-07-06T02:55:33.881Z,1008.48
2018-07-06T02:56:33.799Z,1008.51
2018-07-06T02:57:33.703Z,1008.47
2018-07-06T02:58:33.601Z,1008.51
2018-07-06T02:59:33.510Z,1008.49
2018-07-06T03:00:33.403Z,1008.53
2018-07-06T03:01:33.315Z,1008.56
2018-07-06T03:02:33.213Z,1008.54
2018-07-06T03:03:33.123Z,1008.49
2018-07-06T03:04:33.019Z,1008.52
2018-07-06T03:05:32.928Z,1008.48
2018-07-06T03:06:32.831Z,1008.53
2018-07-06T03:07:32.727Z,1008.52
2018-07-06T03:08:32.643Z,1008.51
2018-07-06T03:09:32.540Z,1008.53
2018-07-06T03:10:32.444Z,1008.52
2018-07-06T03:11:32.341Z,1008.50
2018-07-06T03:12:32.249Z,1008.49
2018-07-06T03:13:32.157Z,1008.55
2018-07-06T03:14:32.058Z,1008.54
2018-07-06T03:15:31.968Z,1008.53
2018-07-06T03:16:31.861Z,1008.53
2018-07-06T03:17:31.771Z,1008.58
2018-07-06T03:18:31.673Z,1008.59
2018-07-06T03:19:31.581Z,1008.57
2018-07-06T03:20:31.491Z,1008.59
2018-07-06T03:21:31.390Z,1008.59
2018-07-06T03:22:31.297Z,1008.58
2018-07-06T03:23:31.190Z,1008.58
2018-07-06T03:24:31.101Z,1008.59
2018-07-06T03:25:30.998Z,1008.56
2018-07-06T03:26:31.153Z,1008.57
2018-07-06T03:27:30.812Z,1008.58
2018-07-06T03:28:30.821Z,1008.58
2018-07-06T03:29:30.620Z,1008.55
2018-07-06T03:30:30.521Z,1008.58
2018-07-06T03:31:30.430Z,1008.59
2018-07-06T03:32:30.334Z,1008.61
2018-07-06T03:33:30.232Z,1008.60
2018-07-06T03:34:30.144Z,1008.62
2018-07-06T03:35:30.041Z,1008.61
2018-07-06T03:36:29.948Z,1008.61
2018-07-06T03:37:29.858Z,1008.62
2018-07-06T03:38:29.750Z,1008.67
2018-07-06T03:39:29.659Z,1008.64
2018-07-06T03:40:29.562Z,1008.64
2018-07-06T03:41:29.470Z,1008.63
2018-07-06T03:42:29.365Z,1008.63
2018-07-06T03:43:29.273Z,1008.66
2018-07-06T03:44:29.179Z,1008.67
2018-07-06T03:45:29.077Z,1008.70
2018-07-06T03:46:28.991Z,1008.74
2018-07-06T03:47:28.899Z,1008.77
2018-07-06T03:48:28.795Z,1008.72
2018-07-06T03:49:28.706Z,1008.72
2018-07-06T03:50:28.598Z,1008.73
2018-07-06T03:51:28.819Z,1008.70
2018-07-06T03:52:28.418Z,1008.73
2018-07-06T03:53:28.322Z,1008.76
2018-07-06T03:54:28.228Z,1008.74
2018-07-06T03:55:28.138Z,1008.75
2018-07-06T03:56:28.031Z,1008.77
2018-07-06T03:57:27.938Z,1008.70
2018-07-06T03:58:27.839Z,1008.73
2018-07-06T03:59:27.747Z,1008.70
2018-07-06T04:00:27.657Z,1008.70
2018-07-06T04:01:27.556Z,1008.72
2018-07-06T04:02:27.461Z,1008.73
2018-07-06T04:03:27.369Z,1008.71
2018-07-06T04:04:27.270Z,1008.71
2018-07-06T04:05:27.179Z,1008.70
2018-07-06T04:06:27.085Z,1008.75
2018-07-06T04:07:26.980Z,1008.74
2018-07-06T04:08:26.888Z,1008.78
2018-07-06T04:09:26.799Z,1008.76
2018-07-06T04:10:26.714Z,1008.78
2018-07-06T04:11:26.608Z,1008.82
2018-07-06T04:12:26.505Z,1008.80
2018-07-06T04:13:26.413Z,1008.80
2018-07-06T04:14:26.325Z,1008.80
2018-07-06T04:15:26.225Z,1008.85
2018-07-06T04:16:26.127Z,1008.90
2018-07-06T04:17:26.041Z,1008.90
2018-07-06T04:18:25.932Z,1008.93
2018-07-06T04:19:25.840Z,1008.93
2018-07-06T04:20:25.753Z,1008.89
2018-07-06T04:21:25.650Z,1008.92
2018-07-06T04:22:25.554Z,1008.91
2018-07-06T04:23:25.465Z,1008.92
2018-07-06T04:24:25.363Z,1008.89
2018-07-06T04:25:25.271Z,1008.91
2018-07-06T04:26:25.236Z,1008.89
2018-07-06T04:27:25.095Z,1008.91
2018-07-06T04:28:24.996Z,1008.90
2018-07-06T04:29:24.888Z,1008.92
2018-07-06T04:30:24.795Z,1008.89
2018-07-06T04:31:25.007Z,1008.85
2018-07-06T04:32:24.603Z,1008.88
2018-07-06T04:33:24.512Z,1008.91
2018-07-06T04:34:24.416Z,1008.90
2018-07-06T04:35:24.314Z,1008.94
2018-07-06T04:36:24.227Z,1008.93
2018-07-06T04:37:24.135Z,1008.99
2018-07-06T04:38:24.027Z,1008.99
2018-07-06T04:39:23.937Z,1008.97
2018-07-06T04:40:23.844Z,1008.95
2018-07-06T04:41:23.763Z,1008.97
2018-07-06T04:42:23.655Z,1008.96
2018-07-06T04:43:23.576Z,1008.98
2018-07-06T04:44:23.549Z,1008.93
2018-07-06T04:45:23.368Z,1008.94
2018-07-06T04:46:23.280Z,1008.97
2018-07-06T04:47:23.180Z,1009.01
2018-07-06T04:48:23.085Z,1008.96
2018-07-06T04:49:22.993Z,1008.96
2018-07-06T04:50:22.886Z,1008.96
2018-07-06T04:51:22.800Z,1008.98
2018-07-06T04:52:22.710Z,1008.97
2018-07-06T04:53:22.608Z,1008.97
2018-07-06T04:54:22.513Z,1008.95
2018-07-06T04:55:22.421Z,1009.00
2018-07-06T04:56:22.316Z,1008.96
2018-07-06T04:57:22.226Z,1008.97
2018-07-06T04:58:22.139Z,1008.95
2018-07-06T04:59:22.036Z,1008.95
2018-07-06T05:00:21.944Z,1009.02
2018-07-06T05:01:21.851Z,1009.01
2018-07-06T05:02:21.752Z,1008.99
2018-07-06T05:03:21.664Z,1009.00
2018-07-06T05:04:21.569Z,1009.01
2018-07-06T05:05:21.466Z,1008.97
2018-07-06T05:06:21.372Z,1008.98
2018-07-06T05:07:21.280Z,1008.93
2018-07-06T05:08:21.182Z,1008.97
2018-07-06T05:09:21.094Z,1008.98
2018-07-06T05:10:20.995Z,1008.96
2018-07-06T05:11:20.893Z,1008.98
2018-07-06T05:12:20.804Z,1009.00
2018-07-06T22:59:42.157Z,1013.09
2018-07-06T23:00:42.065Z,1013.08
2018-07-06T23:01:41.974Z,1013.08
2018-07-06T23:02:41.868Z,1013.10
2018-07-06T23:03:41.778Z,1013.11
2018-07-06T23:04:41.671Z,1013.06
2018-07-06T23:05:41.579Z,1013.05
2018-07-06T23:06:41.482Z,1013.02
2018-07-06T23:07:41.404Z,1013.02
2018-07-06T23:08:41.285Z,1013.00
2018-07-06T23:09:41.193Z,1013.01
2018-07-06T23:10:41.087Z,1013.03
2018-07-06T23:11:40.998Z,1013.02
2018-07-06T23:12:40.902Z,1013.06
2018-07-06T23:13:40.807Z,1013.09
2018-07-06T23:14:40.699Z,1013.05
2018-07-06T23:15:40.609Z,1013.05
2018-07-06T23:16:40.510Z,1013.08
2018-07-06T23:17:40.419Z,1013.15
2018-07-06T23:18:40.317Z,1013.15
2018-07-06T23:19:40.228Z,1013.15
2018-07-06T23:20:40.121Z,1013.08
2018-07-06T23:21:40.030Z,1013.12
2018-07-06T23:22:39.939Z,1013.14
2018-07-06T23:23:39.837Z,1013.11
2018-07-06T23:24:39.729Z,1013.13
2018-07-06T23:25:39.653Z,1013.12
2018-07-06T23:26:39.536Z,1013.11
2018-07-06T23:27:39.447Z,1013.13
2018-07-06T23:28:39.346Z,1013.18
2018-07-06T23:29:39.257Z,1013.16
2018-07-06T23:30:39.150Z,1013.16
2018-07-06T23:31:39.062Z,1013.15
2018-07-06T23:32:38.959Z,1013.16
2018-07-06T23:33:38.869Z,1013.18
2018-07-06T23:34:38.762Z,1013.16
2018-07-06T23:35:38.671Z,1013.15
2018-07-06T23:36:38.565Z,1013.16
2018-07-06T23:37:38.473Z,1013.19
2018-07-06T23:38:38.378Z,1013.19
2018-07-06T23:39:38.286Z,1013.21
2018-07-06T23:40:38.181Z,1013.22
2018-07-06T23:41:38.086Z,1013.23
2018-07-06T23:42:37.981Z,1013.19
2018-07-06T23:43:37.892Z,1013.18
2018-07-06T23:44:37.793Z,1013.18
2018-07-06T23:45:37.700Z,1013.20
2018-07-06T23:46:37.593Z,1013.21
2018-07-06T23:47:37.503Z,1013.23
2018-07-06T23:48:37.403Z,1013.25
2018-07-06T23:49:37.311Z,1013.27
2018-07-06T23:50:37.211Z,1013.24
2018-07-06T23:51:37.121Z,1013.21
2018-07-06T23:52:37.013Z,1013.26
2018-07-06T23:53:36.910Z,1013.26
2018-07-06T23:54:36.829Z,1013.20
2018-07-06T23:55:36.717Z,1013.26
2018-07-06T23:56:36.622Z,1013.21
2018-07-06T23:57:36.520Z,1013.28
2018-07-06T23:58:36.430Z,1013.24
2018-07-06T23:59:36.327Z,1013.24
